sensor_id;sensor_type;location;lat;lon;timestamp;temperature;humidity
23395;DHT22;11870;53.084;18.206;2022-10-16T00:01:30;13.70;99.90
23395;DHT22;11870;53.084;18.206;2022-10-16T00:04:00;13.50;99.90
23395;DHT22;11870;53.084;18.206;2022-10-16T00:06:28;13.40;99.90
23395;DHT22;11870;53.084;18.206;2022-10-16T00:08:55;13.20;99.90
23395;DHT22;11870;53.084;18.206;2022-10-16T00:11:30;13.10;99.90
23395;DHT22;11870;53.084;18.206;2022-10-16T00:14:01;13.00;99.90
23395;DHT22;11870;53.084;18.206;2022-10-16T00:16:28;12.90;99.90
23395;DHT22;11870;53.084;18.206;2022-10-16T00:18:54;12.80;99.90
23395;DHT22;11870;53.084;18.206;2022-10-16T00:21:26;12.70;99.90
23395;DHT22;11870;53.084;18.206;2022-10-16T00:24:04;12.70;99.90
23395;DHT22;11870;53.084;18.206;2022-10-16T00:26:32;12.60;99.90
23395;DHT22;11870;53.084;18.206;2022-10-16T00:28:58;12.50;99.90
23395;DHT22;11870;53.084;18.206;2022-10-16T00:31:25;12.50;99.90
23395;DHT22;11870;53.084;18.206;2022-10-16T00:33:51;12.40;99.90
23395;DHT22;11870;53.084;18.206;2022-10-16T00:36:20;12.40;99.90
23395;DHT22;11870;53.084;18.206;2022-10-16T00:38:46;12.40;99.90
23395;DHT22;11870;53.084;18.206;2022-10-16T00:41:15;12.30;99.90
23395;DHT22;11870;53.084;18.206;2022-10-16T00:48:52;12.30;99.90
23395;DHT22;11870;53.084;18.206;2022-10-16T00:51:25;12.90;99.90
23395;DHT22;11870;53.084;18.206;2022-10-16T00:53:53;12.50;99.90
23395;DHT22;11870;53.084;18.206;2022-10-16T00:56:19;12.60;99.90
23395;DHT22;11870;53.084;18.206;2022-10-16T00:58:44;12.70;99.90
23395;DHT22;11870;53.084;18.206;2022-10-16T01:01:11;12.80;99.90
23395;DHT22;11870;53.084;18.206;2022-10-16T01:03:37;12.80;99.90
23395;DHT22;11870;53.084;18.206;2022-10-16T01:14:06;13.30;99.90
23395;DHT22;11870;53.084;18.206;2022-10-16T01:16:49;12.90;99.90
23395;DHT22;11870;53.084;18.206;2022-10-16T01:19:20;12.90;99.90
23395;DHT22;11870;53.084;18.206;2022-10-16T01:21:49;13.00;99.90
23395;DHT22;11870;53.084;18.206;2022-10-16T01:24:39;12.90;99.90
23395;DHT22;11870;53.084;18.206;2022-10-16T01:27:20;13.00;99.90
23395;DHT22;11870;53.084;18.206;2022-10-16T01:30:10;13.00;99.90
23395;DHT22;11870;53.084;18.206;2022-10-16T01:32:52;13.10;99.90
23395;DHT22;11870;53.084;18.206;2022-10-16T01:35:22;13.10;99.90
23395;DHT22;11870;53.084;18.206;2022-10-16T01:40:38;13.20;99.90
23395;DHT22;11870;53.084;18.206;2022-10-16T01:43:12;13.20;99.90
23395;DHT22;11870;53.084;18.206;2022-10-16T01:45:41;13.40;99.90
23395;DHT22;11870;53.084;18.206;2022-10-16T01:48:07;13.20;99.90
23395;DHT22;11870;53.084;18.206;2022-10-16T01:50:39;13.30;99.90
23395;DHT22;11870;53.084;18.206;2022-10-16T01:53:09;13.30;99.90
23395;DHT22;11870;53.084;18.206;2022-10-16T01:55:39;13.30;99.90
23395;DHT22;11870;53.084;18.206;2022-10-16T01:58:11;13.60;99.90
23395;DHT22;11870;53.084;18.206;2022-10-16T02:00:40;13.30;99.90
23395;DHT22;11870;53.084;18.206;2022-10-16T02:03:08;13.30;99.90
23395;DHT22;11870;53.084;18.206;2022-10-16T02:05:46;13.30;99.90
23395;DHT22;11870;53.084;18.206;2022-10-16T02:08:13;13.30;99.90
23395;DHT22;11870;53.084;18.206;2022-10-16T02:10:39;13.30;99.90
23395;DHT22;11870;53.084;18.206;2022-10-16T02:13:23;13.30;99.90
23395;DHT22;11870;53.084;18.206;2022-10-16T02:15:52;13.20;99.90
23395;DHT22;11870;53.084;18.206;2022-10-16T02:18:18;13.10;99.90
23395;DHT22;11870;53.084;18.206;2022-10-16T02:26:35;12.90;99.90
23395;DHT22;11870;53.084;18.206;2022-10-16T02:29:06;12.80;99.90
23395;DHT22;11870;53.084;18.206;2022-10-16T02:31:36;12.80;99.90
23395;DHT22;11870;53.084;18.206;2022-10-16T02:34:05;12.60;99.90
23395;DHT22;11870;53.084;18.206;2022-10-16T02:36:32;12.60;99.90
23395;DHT22;11870;53.084;18.206;2022-10-16T02:39:00;12.60;99.90
23395;DHT22;11870;53.084;18.206;2022-10-16T02:41:27;12.60;99.90
23395;DHT22;11870;53.084;18.206;2022-10-16T02:43:53;12.60;99.90
23395;DHT22;11870;53.084;18.206;2022-10-16T02:46:21;12.60;99.90
23395;DHT22;11870;53.084;18.206;2022-10-16T02:48:47;12.60;99.90
23395;DHT22;11870;53.084;18.206;2022-10-16T02:51:13;12.70;99.90
23395;DHT22;11870;53.084;18.206;2022-10-16T02:53:39;12.60;99.90
23395;DHT22;11870;53.084;18.206;2022-10-16T02:56:04;12.70;99.90
23395;DHT22;11870;53.084;18.206;2022-10-16T02:58:31;12.70;99.90
23395;DHT22;11870;53.084;18.206;2022-10-16T03:00:56;12.80;99.90
23395;DHT22;11870;53.084;18.206;2022-10-16T03:03:22;12.90;99.90
23395;DHT22;11870;53.084;18.206;2022-10-16T03:05:48;13.00;99.90
23395;DHT22;11870;53.084;18.206;2022-10-16T03:08:14;13.40;99.90
23395;DHT22;11870;53.084;18.206;2022-10-16T03:10:40;13.10;99.90
23395;DHT22;11870;53.084;18.206;2022-10-16T03:13:06;13.10;99.90
23395;DHT22;11870;53.084;18.206;2022-10-16T03:15:32;13.20;99.90
23395;DHT22;11870;53.084;18.206;2022-10-16T03:17:58;13.20;99.90
23395;DHT22;11870;53.084;18.206;2022-10-16T03:20:24;13.30;99.90
23395;DHT22;11870;53.084;18.206;2022-10-16T03:22:50;13.20;99.90
23395;DHT22;11870;53.084;18.206;2022-10-16T03:25:16;13.60;99.90
23395;DHT22;11870;53.084;18.206;2022-10-16T03:27:42;13.20;99.90
23395;DHT22;11870;53.084;18.206;2022-10-16T03:30:09;13.40;99.90
23395;DHT22;11870;53.084;18.206;2022-10-16T03:32:35;13.30;99.90
23395;DHT22;11870;53.084;18.206;2022-10-16T03:35:01;13.30;99.90
23395;DHT22;11870;53.084;18.206;2022-10-16T03:37:27;13.40;99.90
23395;DHT22;11870;53.084;18.206;2022-10-16T03:39:53;13.40;99.90
23395;DHT22;11870;53.084;18.206;2022-10-16T03:42:19;13.40;99.90
23395;DHT22;11870;53.084;18.206;2022-10-16T03:44:44;13.40;99.90
23395;DHT22;11870;53.084;18.206;2022-10-16T03:47:10;13.90;99.90
23395;DHT22;11870;53.084;18.206;2022-10-16T03:49:36;13.40;99.90
23395;DHT22;11870;53.084;18.206;2022-10-16T03:52:02;14.00;99.90
23395;DHT22;11870;53.084;18.206;2022-10-16T03:54:28;13.40;99.90
23395;DHT22;11870;53.084;18.206;2022-10-16T03:56:54;13.80;99.90
23395;DHT22;11870;53.084;18.206;2022-10-16T03:59:20;13.50;99.90
23395;DHT22;11870;53.084;18.206;2022-10-16T04:01:46;13.50;99.90
23395;DHT22;11870;53.084;18.206;2022-10-16T04:04:12;13.50;99.90
23395;DHT22;11870;53.084;18.206;2022-10-16T04:06:38;13.50;99.90
23395;DHT22;11870;53.084;18.206;2022-10-16T04:09:04;13.60;99.90
23395;DHT22;11870;53.084;18.206;2022-10-16T04:11:30;13.50;99.90
23395;DHT22;11870;53.084;18.206;2022-10-16T04:13:56;13.50;99.90
23395;DHT22;11870;53.084;18.206;2022-10-16T04:16:22;13.50;99.90
23395;DHT22;11870;53.084;18.206;2022-10-16T04:18:47;13.50;99.90
23395;DHT22;11870;53.084;18.206;2022-10-16T04:21:13;14.00;99.90
23395;DHT22;11870;53.084;18.206;2022-10-16T04:23:39;13.60;99.90
23395;DHT22;11870;53.084;18.206;2022-10-16T04:26:06;13.60;99.90
23395;DHT22;11870;53.084;18.206;2022-10-16T04:28:31;13.60;99.90
23395;DHT22;11870;53.084;18.206;2022-10-16T04:30:57;13.70;99.90
23395;DHT22;11870;53.084;18.206;2022-10-16T04:33:24;13.80;99.90
23395;DHT22;11870;53.084;18.206;2022-10-16T04:35:56;13.70;99.90
23395;DHT22;11870;53.084;18.206;2022-10-16T04:38:22;13.70;99.90
23395;DHT22;11870;53.084;18.206;2022-10-16T04:40:48;13.60;99.90
23395;DHT22;11870;53.084;18.206;2022-10-16T04:43:14;13.60;99.90
23395;DHT22;11870;53.084;18.206;2022-10-16T04:45:40;13.70;99.90
23395;DHT22;11870;53.084;18.206;2022-10-16T04:48:06;13.60;99.90
23395;DHT22;11870;53.084;18.206;2022-10-16T04:50:32;13.70;99.90
23395;DHT22;11870;53.084;18.206;2022-10-16T04:52:57;13.90;99.90
23395;DHT22;11870;53.084;18.206;2022-10-16T04:55:23;13.70;99.90
23395;DHT22;11870;53.084;18.206;2022-10-16T04:57:49;14.00;99.90
23395;DHT22;11870;53.084;18.206;2022-10-16T05:00:15;13.80;99.90
23395;DHT22;11870;53.084;18.206;2022-10-16T05:02:41;13.80;99.90
23395;DHT22;11870;53.084;18.206;2022-10-16T05:05:08;13.70;99.90
23395;DHT22;11870;53.084;18.206;2022-10-16T05:07:33;13.70;99.90
23395;DHT22;11870;53.084;18.206;2022-10-16T05:09:59;13.70;99.90
23395;DHT22;11870;53.084;18.206;2022-10-16T05:12:25;13.70;99.90
23395;DHT22;11870;53.084;18.206;2022-10-16T05:14:51;13.80;99.90
23395;DHT22;11870;53.084;18.206;2022-10-16T05:17:17;13.80;99.90
23395;DHT22;11870;53.084;18.206;2022-10-16T05:19:43;13.80;99.90
23395;DHT22;11870;53.084;18.206;2022-10-16T05:22:09;14.40;99.90
23395;DHT22;11870;53.084;18.206;2022-10-16T05:24:35;14.10;99.90
23395;DHT22;11870;53.084;18.206;2022-10-16T05:27:01;13.80;99.90
23395;DHT22;11870;53.084;18.206;2022-10-16T05:29:27;14.60;99.90
23395;DHT22;11870;53.084;18.206;2022-10-16T05:31:53;13.80;99.90
23395;DHT22;11870;53.084;18.206;2022-10-16T05:34:20;13.90;99.90
23395;DHT22;11870;53.084;18.206;2022-10-16T05:36:46;13.90;99.90
23395;DHT22;11870;53.084;18.206;2022-10-16T05:39:14;13.90;99.90
23395;DHT22;11870;53.084;18.206;2022-10-16T05:41:40;14.00;99.90
23395;DHT22;11870;53.084;18.206;2022-10-16T05:44:06;14.00;99.90
23395;DHT22;11870;53.084;18.206;2022-10-16T05:46:33;14.00;99.90
23395;DHT22;11870;53.084;18.206;2022-10-16T05:48:59;14.00;99.90
23395;DHT22;11870;53.084;18.206;2022-10-16T05:51:25;14.00;99.90
23395;DHT22;11870;53.084;18.206;2022-10-16T05:53:52;14.00;99.90
23395;DHT22;11870;53.084;18.206;2022-10-16T05:56:18;14.00;99.90
23395;DHT22;11870;53.084;18.206;2022-10-16T05:58:44;14.10;99.90
23395;DHT22;11870;53.084;18.206;2022-10-16T06:01:12;14.40;99.90
23395;DHT22;11870;53.084;18.206;2022-10-16T06:03:39;14.20;99.90
23395;DHT22;11870;53.084;18.206;2022-10-16T06:06:13;14.30;99.90
23395;DHT22;11870;53.084;18.206;2022-10-16T06:08:40;14.40;99.90
23395;DHT22;11870;53.084;18.206;2022-10-16T06:11:08;14.60;99.90
23395;DHT22;11870;53.084;18.206;2022-10-16T06:13:35;14.70;99.90
23395;DHT22;11870;53.084;18.206;2022-10-16T06:16:02;14.80;99.90
23395;DHT22;11870;53.084;18.206;2022-10-16T06:18:29;15.00;99.90
23395;DHT22;11870;53.084;18.206;2022-10-16T06:20:55;15.20;99.90
23395;DHT22;11870;53.084;18.206;2022-10-16T06:23:22;15.30;99.90
23395;DHT22;11870;53.084;18.206;2022-10-16T06:25:48;15.50;99.90
23395;DHT22;11870;53.084;18.206;2022-10-16T06:28:15;15.80;99.90
23395;DHT22;11870;53.084;18.206;2022-10-16T06:30:41;16.00;99.90
23395;DHT22;11870;53.084;18.206;2022-10-16T06:33:10;16.10;99.90
23395;DHT22;11870;53.084;18.206;2022-10-16T06:35:36;16.20;99.90
23395;DHT22;11870;53.084;18.206;2022-10-16T06:38:02;16.20;99.90
23395;DHT22;11870;53.084;18.206;2022-10-16T06:40:28;16.60;99.90
23395;DHT22;11870;53.084;18.206;2022-10-16T06:42:57;16.20;99.90
23395;DHT22;11870;53.084;18.206;2022-10-16T06:45:22;16.20;99.90
23395;DHT22;11870;53.084;18.206;2022-10-16T06:47:48;16.10;99.90
23395;DHT22;11870;53.084;18.206;2022-10-16T06:50:14;16.70;99.90
23395;DHT22;11870;53.084;18.206;2022-10-16T06:52:40;16.20;99.90
23395;DHT22;11870;53.084;18.206;2022-10-16T06:55:06;16.20;99.90
23395;DHT22;11870;53.084;18.206;2022-10-16T06:57:32;16.20;99.90
23395;DHT22;11870;53.084;18.206;2022-10-16T06:59:58;16.20;99.90
23395;DHT22;11870;53.084;18.206;2022-10-16T07:02:24;16.20;99.90
23395;DHT22;11870;53.084;18.206;2022-10-16T07:04:50;16.20;99.90
23395;DHT22;11870;53.084;18.206;2022-10-16T07:07:16;16.30;99.90
23395;DHT22;11870;53.084;18.206;2022-10-16T07:09:42;16.40;99.90
23395;DHT22;11870;53.084;18.206;2022-10-16T07:12:08;16.60;99.90
23395;DHT22;11870;53.084;18.206;2022-10-16T07:14:33;16.80;99.90
23395;DHT22;11870;53.084;18.206;2022-10-16T07:16:59;16.90;99.90
23395;DHT22;11870;53.084;18.206;2022-10-16T07:19:25;17.20;99.90
23395;DHT22;11870;53.084;18.206;2022-10-16T07:21:51;17.40;99.90
23395;DHT22;11870;53.084;18.206;2022-10-16T07:24:17;17.60;99.90
23395;DHT22;11870;53.084;18.206;2022-10-16T07:26:44;17.80;99.90
23395;DHT22;11870;53.084;18.206;2022-10-16T07:29:13;18.10;99.90
23395;DHT22;11870;53.084;18.206;2022-10-16T07:31:40;18.50;99.90
23395;DHT22;11870;53.084;18.206;2022-10-16T07:34:06;19.00;99.90
23395;DHT22;11870;53.084;18.206;2022-10-16T07:36:32;19.70;99.90
23395;DHT22;11870;53.084;18.206;2022-10-16T07:38:58;20.50;99.90
23395;DHT22;11870;53.084;18.206;2022-10-16T07:41:24;21.50;99.90
23395;DHT22;11870;53.084;18.206;2022-10-16T07:43:52;22.80;99.90
23395;DHT22;11870;53.084;18.206;2022-10-16T07:46:19;24.10;99.90
23395;DHT22;11870;53.084;18.206;2022-10-16T07:48:46;25.40;99.90
23395;DHT22;11870;53.084;18.206;2022-10-16T07:51:15;26.20;99.90
23395;DHT22;11870;53.084;18.206;2022-10-16T07:53:41;26.40;99.90
23395;DHT22;11870;53.084;18.206;2022-10-16T07:56:08;26.20;99.90
23395;DHT22;11870;53.084;18.206;2022-10-16T07:58:34;25.60;99.90
23395;DHT22;11870;53.084;18.206;2022-10-16T08:01:05;25.00;99.90
23395;DHT22;11870;53.084;18.206;2022-10-16T08:03:32;24.30;99.90
23395;DHT22;11870;53.084;18.206;2022-10-16T08:05:58;23.80;99.90
23395;DHT22;11870;53.084;18.206;2022-10-16T08:08:24;23.00;99.90
23395;DHT22;11870;53.084;18.206;2022-10-16T08:10:50;22.60;99.90
23395;DHT22;11870;53.084;18.206;2022-10-16T08:13:16;22.20;99.90
23395;DHT22;11870;53.084;18.206;2022-10-16T08:15:43;22.00;99.90
23395;DHT22;11870;53.084;18.206;2022-10-16T08:18:10;22.00;99.90
23395;DHT22;11870;53.084;18.206;2022-10-16T08:20:37;22.00;99.90
23395;DHT22;11870;53.084;18.206;2022-10-16T08:23:03;22.10;99.90
23395;DHT22;11870;53.084;18.206;2022-10-16T08:25:29;22.10;99.90
23395;DHT22;11870;53.084;18.206;2022-10-16T08:27:55;22.20;99.90
23395;DHT22;11870;53.084;18.206;2022-10-16T08:30:22;22.70;99.90
23395;DHT22;11870;53.084;18.206;2022-10-16T08:32:49;23.10;99.90
23395;DHT22;11870;53.084;18.206;2022-10-16T08:35:16;23.70;99.90
23395;DHT22;11870;53.084;18.206;2022-10-16T08:37:42;24.30;99.90
23395;DHT22;11870;53.084;18.206;2022-10-16T08:48:18;25.40;99.90
23395;DHT22;11870;53.084;18.206;2022-10-16T08:50:47;25.90;99.90
23395;DHT22;11870;53.084;18.206;2022-10-16T08:53:20;26.00;99.30
23395;DHT22;11870;53.084;18.206;2022-10-16T08:55:53;26.40;99.30
23395;DHT22;11870;53.084;18.206;2022-10-16T08:58:21;27.20;96.40
23395;DHT22;11870;53.084;18.206;2022-10-16T09:00:57;27.50;94.50
23395;DHT22;11870;53.084;18.206;2022-10-16T09:23:10;23.50;99.90
23395;DHT22;11870;53.084;18.206;2022-10-16T09:25:40;23.20;99.90
23395;DHT22;11870;53.084;18.206;2022-10-16T09:28:08;22.80;99.90
23395;DHT22;11870;53.084;18.206;2022-10-16T09:30:35;22.70;99.90
23395;DHT22;11870;53.084;18.206;2022-10-16T09:33:01;22.60;99.90
23395;DHT22;11870;53.084;18.206;2022-10-16T09:37:58;22.10;99.90
23395;DHT22;11870;53.084;18.206;2022-10-16T09:40:33;22.00;99.90
23395;DHT22;11870;53.084;18.206;2022-10-16T09:45:43;21.70;99.90
23395;DHT22;11870;53.084;18.206;2022-10-16T09:48:13;21.70;99.90
23395;DHT22;11870;53.084;18.206;2022-10-16T09:50:39;21.70;99.90
23395;DHT22;11870;53.084;18.206;2022-10-16T09:53:12;21.70;99.90
23395;DHT22;11870;53.084;18.206;2022-10-16T09:55:52;21.70;99.90
23395;DHT22;11870;53.084;18.206;2022-10-16T09:58:23;21.70;99.90
23395;DHT22;11870;53.084;18.206;2022-10-16T10:00:52;21.60;99.90
23395;DHT22;11870;53.084;18.206;2022-10-16T10:03:39;21.60;99.90
23395;DHT22;11870;53.084;18.206;2022-10-16T10:06:22;21.50;99.90
23395;DHT22;11870;53.084;18.206;2022-10-16T10:11:54;21.60;99.90
23395;DHT22;11870;53.084;18.206;2022-10-16T10:14:34;22.20;99.90
23395;DHT22;11870;53.084;18.206;2022-10-16T10:19:51;23.20;99.90
23395;DHT22;11870;53.084;18.206;2022-10-16T10:22:38;23.50;99.90
23395;DHT22;11870;53.084;18.206;2022-10-16T10:25:26;23.90;99.90
23395;DHT22;11870;53.084;18.206;2022-10-16T10:30:35;24.00;99.90
23395;DHT22;11870;53.084;18.206;2022-10-16T10:53:24;22.50;99.90
23395;DHT22;11870;53.084;18.206;2022-10-16T10:59:15;23.00;99.90
23395;DHT22;11870;53.084;18.206;2022-10-16T11:01:54;23.20;99.90
23395;DHT22;11870;53.084;18.206;2022-10-16T11:06:59;23.90;99.90
23395;DHT22;11870;53.084;18.206;2022-10-16T11:09:34;23.90;99.90
23395;DHT22;11870;53.084;18.206;2022-10-16T11:14:41;23.60;99.90
23395;DHT22;11870;53.084;18.206;2022-10-16T11:17:15;23.10;99.90
23395;DHT22;11870;53.084;18.206;2022-10-16T11:19:56;22.70;99.90
23395;DHT22;11870;53.084;18.206;2022-10-16T11:27:39;22.30;99.90
23395;DHT22;11870;53.084;18.206;2022-10-16T11:30:22;22.20;99.90
23395;DHT22;11870;53.084;18.206;2022-10-16T11:38:30;22.20;99.90
23395;DHT22;11870;53.084;18.206;2022-10-16T11:41:03;22.40;99.90
23395;DHT22;11870;53.084;18.206;2022-10-16T11:43:46;22.40;99.90
23395;DHT22;11870;53.084;18.206;2022-10-16T11:46:20;22.20;99.90
23395;DHT22;11870;53.084;18.206;2022-10-16T11:52:23;21.90;99.90
23395;DHT22;11870;53.084;18.206;2022-10-16T11:55:01;21.50;99.90
23395;DHT22;11870;53.084;18.206;2022-10-16T11:57:33;21.50;99.90
23395;DHT22;11870;53.084;18.206;2022-10-16T12:00:20;21.60;99.90
23395;DHT22;11870;53.084;18.206;2022-10-16T12:03:39;21.60;99.90
23395;DHT22;11870;53.084;18.206;2022-10-16T12:05:55;21.60;99.90
23395;DHT22;11870;53.084;18.206;2022-10-16T12:08:23;21.70;99.90
23395;DHT22;11870;53.084;18.206;2022-10-16T12:10:49;21.90;99.90
23395;DHT22;11870;53.084;18.206;2022-10-16T12:13:32;22.00;99.90
23395;DHT22;11870;53.084;18.206;2022-10-16T12:16:20;22.10;99.90
23395;DHT22;11870;53.084;18.206;2022-10-16T12:18:48;22.20;99.90
23395;DHT22;11870;53.084;18.206;2022-10-16T12:21:16;22.20;99.90
23395;DHT22;11870;53.084;18.206;2022-10-16T12:23:53;22.10;99.90
23395;DHT22;11870;53.084;18.206;2022-10-16T12:26:29;22.20;99.90
23395;DHT22;11870;53.084;18.206;2022-10-16T12:29:08;22.10;99.90
23395;DHT22;11870;53.084;18.206;2022-10-16T12:31:43;22.00;99.90
23395;DHT22;11870;53.084;18.206;2022-10-16T12:34:24;22.00;99.90
23395;DHT22;11870;53.084;18.206;2022-10-16T12:36:51;21.90;99.90
23395;DHT22;11870;53.084;18.206;2022-10-16T12:39:22;21.80;99.90
23395;DHT22;11870;53.084;18.206;2022-10-16T12:42:04;21.70;99.90
23395;DHT22;11870;53.084;18.206;2022-10-16T12:44:34;21.60;99.90
23395;DHT22;11870;53.084;18.206;2022-10-16T12:47:01;21.50;99.90
23395;DHT22;11870;53.084;18.206;2022-10-16T12:51:54;21.30;99.90
23395;DHT22;11870;53.084;18.206;2022-10-16T12:59:59;20.90;99.90
23395;DHT22;11870;53.084;18.206;2022-10-16T13:08:22;20.70;99.90
23395;DHT22;11870;53.084;18.206;2022-10-16T13:11:19;20.70;99.90
23395;DHT22;11870;53.084;18.206;2022-10-16T13:21:38;20.50;99.90
23395;DHT22;11870;53.084;18.206;2022-10-16T13:27:14;20.50;99.90
23395;DHT22;11870;53.084;18.206;2022-10-16T13:29:42;20.50;99.90
23395;DHT22;11870;53.084;18.206;2022-10-16T13:32:10;20.60;99.90
23395;DHT22;11870;53.084;18.206;2022-10-16T13:34:48;20.50;99.90
23395;DHT22;11870;53.084;18.206;2022-10-16T13:37:22;20.60;99.90
23395;DHT22;11870;53.084;18.206;2022-10-16T13:39:48;20.60;99.90
23395;DHT22;11870;53.084;18.206;2022-10-16T13:42:28;20.70;99.90
23395;DHT22;11870;53.084;18.206;2022-10-16T13:44:55;20.80;99.90
23395;DHT22;11870;53.084;18.206;2022-10-16T13:47:25;20.80;99.90
23395;DHT22;11870;53.084;18.206;2022-10-16T13:52:30;20.90;99.90
23395;DHT22;11870;53.084;18.206;2022-10-16T13:54:56;21.00;99.90
23395;DHT22;11870;53.084;18.206;2022-10-16T13:57:23;20.90;99.90
23395;DHT22;11870;53.084;18.206;2022-10-16T13:59:50;20.80;99.90
23395;DHT22;11870;53.084;18.206;2022-10-16T14:02:27;20.80;99.90
23395;DHT22;11870;53.084;18.206;2022-10-16T14:04:54;20.80;99.90
23395;DHT22;11870;53.084;18.206;2022-10-16T14:07:24;20.70;99.90
23395;DHT22;11870;53.084;18.206;2022-10-16T14:09:53;20.50;99.90
23395;DHT22;11870;53.084;18.206;2022-10-16T14:12:19;20.60;99.90
23395;DHT22;11870;53.084;18.206;2022-10-16T14:14:48;20.60;99.90
23395;DHT22;11870;53.084;18.206;2022-10-16T14:17:23;20.50;99.90
23395;DHT22;11870;53.084;18.206;2022-10-16T14:19:52;20.50;99.90
23395;DHT22;11870;53.084;18.206;2022-10-16T14:24:49;20.40;99.90
23395;DHT22;11870;53.084;18.206;2022-10-16T14:27:33;20.40;99.90
23395;DHT22;11870;53.084;18.206;2022-10-16T14:30:17;20.30;99.90
23395;DHT22;11870;53.084;18.206;2022-10-16T14:32:54;20.30;99.90
23395;DHT22;11870;53.084;18.206;2022-10-16T14:35:34;20.20;99.90
23395;DHT22;11870;53.084;18.206;2022-10-16T14:38:02;20.10;99.90
23395;DHT22;11870;53.084;18.206;2022-10-16T14:40:32;20.10;99.90
23395;DHT22;11870;53.084;18.206;2022-10-16T14:43:00;20.10;99.90
23395;DHT22;11870;53.084;18.206;2022-10-16T14:45:32;20.00;99.90
23395;DHT22;11870;53.084;18.206;2022-10-16T14:48:03;20.00;99.90
23395;DHT22;11870;53.084;18.206;2022-10-16T14:50:29;20.00;99.90
23395;DHT22;11870;53.084;18.206;2022-10-16T14:52:55;19.90;99.90
23395;DHT22;11870;53.084;18.206;2022-10-16T14:55:22;19.90;99.90
23395;DHT22;11870;53.084;18.206;2022-10-16T14:57:48;19.80;99.90
23395;DHT22;11870;53.084;18.206;2022-10-16T15:00:20;19.70;99.90
23395;DHT22;11870;53.084;18.206;2022-10-16T15:02:47;19.60;99.90
23395;DHT22;11870;53.084;18.206;2022-10-16T15:05:23;19.50;99.90
23395;DHT22;11870;53.084;18.206;2022-10-16T15:07:50;19.30;99.90
23395;DHT22;11870;53.084;18.206;2022-10-16T15:10:18;19.20;99.90
23395;DHT22;11870;53.084;18.206;2022-10-16T15:12:44;19.10;99.90
23395;DHT22;11870;53.084;18.206;2022-10-16T15:15:35;19.00;99.90
23395;DHT22;11870;53.084;18.206;2022-10-16T15:18:02;18.80;99.90
23395;DHT22;11870;53.084;18.206;2022-10-16T15:20:34;18.70;99.90
23395;DHT22;11870;53.084;18.206;2022-10-16T15:23:06;18.50;99.90
23395;DHT22;11870;53.084;18.206;2022-10-16T15:25:42;18.40;99.90
23395;DHT22;11870;53.084;18.206;2022-10-16T15:28:09;18.20;99.90
23395;DHT22;11870;53.084;18.206;2022-10-16T15:30:36;18.10;99.90
23395;DHT22;11870;53.084;18.206;2022-10-16T15:33:04;18.00;99.90
23395;DHT22;11870;53.084;18.206;2022-10-16T15:35:30;17.90;99.90
23395;DHT22;11870;53.084;18.206;2022-10-16T15:37:56;17.80;99.90
23395;DHT22;11870;53.084;18.206;2022-10-16T15:40:23;17.60;99.90
23395;DHT22;11870;53.084;18.206;2022-10-16T15:42:49;17.40;99.90
23395;DHT22;11870;53.084;18.206;2022-10-16T15:45:16;17.30;99.90
23395;DHT22;11870;53.084;18.206;2022-10-16T15:47:42;17.20;99.90
23395;DHT22;11870;53.084;18.206;2022-10-16T15:50:13;17.20;99.90
23395;DHT22;11870;53.084;18.206;2022-10-16T15:52:39;17.10;99.90
23395;DHT22;11870;53.084;18.206;2022-10-16T15:55:08;17.00;99.90
23395;DHT22;11870;53.084;18.206;2022-10-16T15:57:34;16.90;99.90
23395;DHT22;11870;53.084;18.206;2022-10-16T16:00:09;16.90;99.90
23395;DHT22;11870;53.084;18.206;2022-10-16T16:02:35;16.80;99.90
23395;DHT22;11870;53.084;18.206;2022-10-16T16:05:02;16.60;99.90
23395;DHT22;11870;53.084;18.206;2022-10-16T16:07:28;16.50;99.90
23395;DHT22;11870;53.084;18.206;2022-10-16T16:09:54;16.30;99.90
23395;DHT22;11870;53.084;18.206;2022-10-16T16:12:20;16.10;99.90
23395;DHT22;11870;53.084;18.206;2022-10-16T16:14:46;15.90;99.90
23395;DHT22;11870;53.084;18.206;2022-10-16T16:17:14;15.70;99.90
23395;DHT22;11870;53.084;18.206;2022-10-16T16:19:40;15.60;99.90
23395;DHT22;11870;53.084;18.206;2022-10-16T16:22:06;15.40;99.90
23395;DHT22;11870;53.084;18.206;2022-10-16T16:24:32;15.30;99.90
23395;DHT22;11870;53.084;18.206;2022-10-16T16:26:58;15.10;99.90
23395;DHT22;11870;53.084;18.206;2022-10-16T16:29:24;15.00;99.90
23395;DHT22;11870;53.084;18.206;2022-10-16T16:31:49;14.90;99.90
23395;DHT22;11870;53.084;18.206;2022-10-16T16:34:15;14.90;99.90
23395;DHT22;11870;53.084;18.206;2022-10-16T16:36:41;14.70;99.90
23395;DHT22;11870;53.084;18.206;2022-10-16T16:39:08;14.60;99.90
23395;DHT22;11870;53.084;18.206;2022-10-16T16:41:33;14.50;99.90
23395;DHT22;11870;53.084;18.206;2022-10-16T16:44:05;14.40;99.90
23395;DHT22;11870;53.084;18.206;2022-10-16T16:46:33;14.30;99.90
23395;DHT22;11870;53.084;18.206;2022-10-16T16:48:59;14.20;99.90
23395;DHT22;11870;53.084;18.206;2022-10-16T16:51:26;14.20;99.90
23395;DHT22;11870;53.084;18.206;2022-10-16T16:53:54;14.00;99.90
23395;DHT22;11870;53.084;18.206;2022-10-16T16:56:22;14.00;99.90
23395;DHT22;11870;53.084;18.206;2022-10-16T16:58:49;13.90;99.90
23395;DHT22;11870;53.084;18.206;2022-10-16T17:01:16;13.80;99.90
23395;DHT22;11870;53.084;18.206;2022-10-16T17:03:44;14.40;99.90
23395;DHT22;11870;53.084;18.206;2022-10-16T17:06:11;13.60;99.90
23395;DHT22;11870;53.084;18.206;2022-10-16T17:08:38;13.50;99.90
23395;DHT22;11870;53.084;18.206;2022-10-16T17:11:05;13.40;99.90
23395;DHT22;11870;53.084;18.206;2022-10-16T17:13:33;13.30;99.90
23395;DHT22;11870;53.084;18.206;2022-10-16T17:16:05;13.30;99.90
23395;DHT22;11870;53.084;18.206;2022-10-16T17:18:32;13.20;99.90
23395;DHT22;11870;53.084;18.206;2022-10-16T17:21:05;13.10;99.90
23395;DHT22;11870;53.084;18.206;2022-10-16T17:23:33;13.00;99.90
23395;DHT22;11870;53.084;18.206;2022-10-16T17:26:14;13.00;99.90
23395;DHT22;11870;53.084;18.206;2022-10-16T17:28:41;12.90;99.90
23395;DHT22;11870;53.084;18.206;2022-10-16T17:31:13;12.90;99.90
23395;DHT22;11870;53.084;18.206;2022-10-16T17:33:39;12.90;99.90
23395;DHT22;11870;53.084;18.206;2022-10-16T17:36:05;12.90;99.90
23395;DHT22;11870;53.084;18.206;2022-10-16T17:38:32;12.90;99.90
23395;DHT22;11870;53.084;18.206;2022-10-16T17:40:58;12.90;99.90
23395;DHT22;11870;53.084;18.206;2022-10-16T17:43:24;12.90;99.90